Time;durP1;ratioP1;P1;durP2;ratioP2;P2;SDS_P1;SDS_P2;PMS_P1;PMS_P2;Temp;Humidity;BMP_temperature;BMP_pressure;BME280_temperature;BME280_humidity;BME280_pressure;Samples;Min_cycle;Max_cycle;Signal;HPM_P1;HPM_P2
2023/05/16 00:02:14;;;;;;;;;;;17.20;99.90;;;;;;5093794;28;19992;-65
2023/05/16 00:04:40;;;;;;;;;;;17.10;99.90;;;;;;5093684;28;20444;-61
2023/05/16 00:07:06;;;;;;;;;;;17.10;99.90;;;;;;5093858;28;20038;-64
2023/05/16 00:09:31;;;;;;;;;;;17.10;99.90;;;;;;5093759;28;20033;-61
2023/05/16 00:11:57;;;;;;;;;;;17.10;99.90;;;;;;5094047;28;19985;-64
2023/05/16 00:14:25;;;;;;;;;;;17.10;99.90;;;;;;5094073;28;19985;-62
2023/05/16 00:16:52;;;;;;;;;;;17.10;99.90;;;;;;5093646;28;20021;-64
2023/05/16 00:19:17;;;;;;;;;;;17.10;99.90;;;;;;5093632;28;20063;-64
2023/05/16 00:21:43;;;;;;;;;;;17.10;99.90;;;;;;5093681;28;20035;-65
2023/05/16 00:24:09;;;;;;;;;;;17.10;99.90;;;;;;5093575;28;20001;-65
2023/05/16 00:26:34;;;;;;;;;;;17.10;99.90;;;;;;5093584;28;20510;-66
2023/05/16 00:29:01;;;;;;;;;;;17.20;99.90;;;;;;5093590;28;19989;-65
2023/05/16 00:31:26;;;;;;;;;;;17.20;99.90;;;;;;5093682;28;20001;-64
2023/05/16 00:33:53;;;;;;;;;;;17.20;99.90;;;;;;5093368;28;19995;-66
2023/05/16 00:36:19;;;;;;;;;;;17.20;99.90;;;;;;5097432;28;20435;-65
2023/05/16 00:38:45;;;;;;;;;;;17.20;99.90;;;;;;5097436;28;20017;-63
2023/05/16 00:41:10;;;;;;;;;;;17.20;99.90;;;;;;5097696;28;19989;-66
2023/05/16 00:43:38;;;;;;;;;;;17.20;99.90;;;;;;5097472;28;19981;-65
2023/05/16 00:46:04;;;;;;;;;;;17.20;99.90;;;;;;5097492;28;20033;-63
2023/05/16 00:48:29;;;;;;;;;;;17.20;99.90;;;;;;5097042;28;20078;-63
2023/05/16 00:50:55;;;;;;;;;;;17.20;99.90;;;;;;5097641;28;19985;-62
2023/05/16 00:53:21;;;;;;;;;;;17.10;99.90;;;;;;5097340;28;19987;-63
2023/05/16 00:55:47;;;;;;;;;;;17.10;99.90;;;;;;5097180;28;20427;-65
2023/05/16 00:58:13;;;;;;;;;;;17.10;99.90;;;;;;5097304;28;19989;-64
2023/05/16 01:00:39;;;;;;;;;;;17.10;99.90;;;;;;5097243;28;20399;-65
2023/05/16 01:03:05;;;;;;;;;;;17.10;99.90;;;;;;5097217;28;20034;-65
2023/05/16 01:05:31;;;;;;;;;;;17.10;99.90;;;;;;5097167;28;20409;-63
2023/05/16 01:07:56;;;;;;;;;;;17.10;99.90;;;;;;5097073;28;19985;-64
2023/05/16 01:10:22;;;;;;;;;;;17.10;99.90;;;;;;5096906;28;20513;-65
2023/05/16 01:13:06;;;;;;;;;;;17.10;99.90;;;;;;5097053;28;19985;-65
2023/05/16 01:15:36;;;;;;;;;;;17.10;99.90;;;;;;5097131;28;20389;-64
2023/05/16 01:18:21;;;;;;;;;;;17.00;99.90;;;;;;5096647;28;20023;-66
2023/05/16 01:21:02;;;;;;;;;;;17.00;99.90;;;;;;5096852;28;20030;-64
2023/05/16 01:23:47;;;;;;;;;;;17.00;99.90;;;;;;5096684;28;19995;-62
2023/05/16 01:26:21;;;;;;;;;;;17.00;99.90;;;;;;5096900;28;19996;-63
2023/05/16 01:28:47;;;;;;;;;;;16.90;99.90;;;;;;5096728;28;20047;-64
2023/05/16 01:31:13;;;;;;;;;;;16.80;99.90;;;;;;5096824;28;19989;-62
2023/05/16 01:33:38;;;;;;;;;;;16.80;99.90;;;;;;5096189;28;19989;-64
2023/05/16 01:36:04;;;;;;;;;;;16.80;99.90;;;;;;5096811;28;19993;-66
2023/05/16 01:38:33;;;;;;;;;;;16.80;99.90;;;;;;5096231;28;20063;-66
2023/05/16 01:41:21;;;;;;;;;;;16.80;99.90;;;;;;5096404;28;20024;-63
2023/05/16 01:43:48;;;;;;;;;;;16.70;99.90;;;;;;5093155;28;20054;-64
2023/05/16 01:46:15;;;;;;;;;;;16.70;99.90;;;;;;5095125;28;20028;-63
2023/05/16 01:48:50;;;;;;;;;;;16.70;99.90;;;;;;5096192;28;20034;-63
2023/05/16 01:51:17;;;;;;;;;;;16.70;99.90;;;;;;5096304;28;19980;-64
2023/05/16 01:53:44;;;;;;;;;;;16.80;99.90;;;;;;5096118;28;20047;-64
2023/05/16 01:56:12;;;;;;;;;;;16.80;99.90;;;;;;5096122;28;20367;-64
2023/05/16 01:58:39;;;;;;;;;;;16.80;99.90;;;;;;5096075;28;20076;-64
2023/05/16 02:01:05;;;;;;;;;;;16.70;99.90;;;;;;5095789;28;19985;-64
2023/05/16 02:03:31;;;;;;;;;;;16.70;99.90;;;;;;5095924;28;20072;-63
2023/05/16 02:05:57;;;;;;;;;;;16.80;99.90;;;;;;5096224;28;20081;-61
2023/05/16 02:08:25;;;;;;;;;;;16.80;99.90;;;;;;5096102;28;20439;-64
2023/05/16 02:10:51;;;;;;;;;;;16.80;99.90;;;;;;5095999;28;20075;-62
2023/05/16 02:13:17;;;;;;;;;;;16.90;99.90;;;;;;5095776;28;20020;-63
2023/05/16 02:15:42;;;;;;;;;;;16.90;99.90;;;;;;5095447;28;20431;-65
2023/05/16 02:18:08;;;;;;;;;;;16.90;99.90;;;;;;5095746;28;19985;-65
2023/05/16 02:20:34;;;;;;;;;;;16.90;99.90;;;;;;5095681;28;19981;-62
2023/05/16 02:23:00;;;;;;;;;;;16.90;99.90;;;;;;5095537;28;20080;-64
2023/05/16 02:25:25;;;;;;;;;;;17.00;99.90;;;;;;5095485;28;20096;-66
2023/05/16 02:27:51;;;;;;;;;;;17.00;99.90;;;;;;5095466;28;19985;-62
2023/05/16 02:30:17;;;;;;;;;;;17.00;99.90;;;;;;5095497;28;20025;-62
2023/05/16 02:32:43;;;;;;;;;;;17.00;99.90;;;;;;5095560;28;20001;-65
2023/05/16 02:35:09;;;;;;;;;;;17.00;99.90;;;;;;5095272;28;19988;-65
2023/05/16 02:37:35;;;;;;;;;;;16.90;99.90;;;;;;5095164;28;20029;-61
2023/05/16 02:40:01;;;;;;;;;;;17.00;99.90;;;;;;5095442;28;19985;-65
2023/05/16 02:42:27;;;;;;;;;;;17.00;99.90;;;;;;5095286;28;19988;-65
2023/05/16 02:44:52;;;;;;;;;;;17.00;99.90;;;;;;5095138;28;20031;-62
2023/05/16 02:47:18;;;;;;;;;;;17.00;99.90;;;;;;5094990;28;20017;-63
2023/05/16 02:49:43;;;;;;;;;;;17.00;99.90;;;;;;5095098;28;20028;-65
2023/05/16 02:52:09;;;;;;;;;;;17.00;99.90;;;;;;5095077;28;19988;-63
2023/05/16 02:54:34;;;;;;;;;;;17.00;99.90;;;;;;5094756;28;20076;-62
2023/05/16 02:57:00;;;;;;;;;;;16.90;99.90;;;;;;5094959;28;19996;-65
2023/05/16 02:59:25;;;;;;;;;;;16.90;99.90;;;;;;5094982;28;20024;-65
2023/05/16 03:01:51;;;;;;;;;;;16.90;99.90;;;;;;5094911;28;20359;-66
2023/05/16 03:04:17;;;;;;;;;;;16.90;99.90;;;;;;5094666;28;20103;-65
2023/05/16 03:06:42;;;;;;;;;;;17.00;99.90;;;;;;5094745;28;20035;-65
2023/05/16 03:09:08;;;;;;;;;;;16.90;99.90;;;;;;5094758;28;19988;-64
2023/05/16 03:11:34;;;;;;;;;;;17.00;99.90;;;;;;5094877;28;19985;-61
2023/05/16 03:14:00;;;;;;;;;;;17.00;99.90;;;;;;5094508;28;20385;-66
2023/05/16 03:16:25;;;;;;;;;;;17.00;99.90;;;;;;5094605;28;19981;-62
2023/05/16 03:18:51;;;;;;;;;;;17.00;99.90;;;;;;5094489;28;19985;-61
2023/05/16 03:21:16;;;;;;;;;;;17.00;99.90;;;;;;5094495;28;20017;-64
2023/05/16 03:23:42;;;;;;;;;;;16.90;99.90;;;;;;5094455;28;19981;-64
2023/05/16 03:26:07;;;;;;;;;;;17.00;99.90;;;;;;5094637;28;20039;-63
2023/05/16 03:28:33;;;;;;;;;;;16.90;99.90;;;;;;5094211;28;20405;-64
2023/05/16 03:30:59;;;;;;;;;;;16.80;99.90;;;;;;5094268;28;20067;-62
2023/05/16 03:33:24;;;;;;;;;;;16.80;99.90;;;;;;5094136;28;20004;-65
2023/05/16 03:35:51;;;;;;;;;;;16.90;99.90;;;;;;5094148;28;19985;-61
2023/05/16 03:38:16;;;;;;;;;;;16.90;99.90;;;;;;5094089;28;20013;-62
2023/05/16 03:40:42;;;;;;;;;;;17.00;99.90;;;;;;5094202;28;20445;-64
2023/05/16 03:43:07;;;;;;;;;;;17.00;99.90;;;;;;5093828;28;19992;-63
2023/05/16 03:45:33;;;;;;;;;;;16.90;99.90;;;;;;5094032;28;20041;-63
2023/05/16 03:47:59;;;;;;;;;;;16.90;99.90;;;;;;5094339;28;19993;-66
2023/05/16 03:50:25;;;;;;;;;;;17.00;99.90;;;;;;5094003;28;19989;-65
2023/05/16 03:52:51;;;;;;;;;;;17.00;99.90;;;;;;5093912;28;19985;-63
2023/05/16 03:55:17;;;;;;;;;;;17.00;99.90;;;;;;5094217;28;19999;-62
2023/05/16 03:57:42;;;;;;;;;;;17.00;99.90;;;;;;5093780;28;20071;-64
2023/05/16 04:00:10;;;;;;;;;;;17.00;99.90;;;;;;5094094;28;19989;-63
2023/05/16 04:02:35;;;;;;;;;;;17.00;99.90;;;;;;5093890;28;20018;-62
2023/05/16 04:05:01;;;;;;;;;;;17.00;99.90;;;;;;5093825;28;20001;-65
2023/05/16 04:07:27;;;;;;;;;;;17.00;99.90;;;;;;5093728;28;19993;-63
2023/05/16 04:09:53;;;;;;;;;;;17.10;99.90;;;;;;5093109;28;19989;-62
2023/05/16 04:12:19;;;;;;;;;;;17.10;99.90;;;;;;5093892;28;19988;-63
2023/05/16 04:14:44;;;;;;;;;;;17.10;99.90;;;;;;5093707;28;20362;-62
2023/05/16 04:17:11;;;;;;;;;;;17.10;99.90;;;;;;5093875;28;19981;-63
2023/05/16 04:19:36;;;;;;;;;;;17.10;99.90;;;;;;5093678;28;20359;-65
2023/05/16 04:22:02;;;;;;;;;;;17.10;99.90;;;;;;5093843;28;19985;-64
2023/05/16 04:24:28;;;;;;;;;;;17.10;99.90;;;;;;5093659;28;20626;-66
2023/05/16 04:26:54;;;;;;;;;;;17.10;99.90;;;;;;5093533;28;19988;-62
2023/05/16 04:29:20;;;;;;;;;;;17.00;99.90;;;;;;5093544;28;19988;-65
2023/05/16 04:31:46;;;;;;;;;;;16.80;99.90;;;;;;5093487;28;20002;-61
2023/05/16 04:34:12;;;;;;;;;;;16.90;99.90;;;;;;5093588;28;20026;-62
2023/05/16 04:36:37;;;;;;;;;;;16.90;99.90;;;;;;5093218;28;20455;-63
2023/05/16 04:39:03;;;;;;;;;;;16.90;99.90;;;;;;5093466;28;20024;-65
2023/05/16 04:41:29;;;;;;;;;;;16.80;99.90;;;;;;5093340;28;20020;-66
2023/05/16 04:43:54;;;;;;;;;;;16.80;99.90;;;;;;5093656;28;20560;-65
2023/05/16 04:46:20;;;;;;;;;;;16.80;99.90;;;;;;5093736;28;20424;-64
2023/05/16 04:48:46;;;;;;;;;;;16.90;99.90;;;;;;5093447;28;19982;-62
2023/05/16 04:51:11;;;;;;;;;;;17.00;99.90;;;;;;5093410;28;19981;-61
2023/05/16 04:53:37;;;;;;;;;;;17.00;99.90;;;;;;5093297;28;19985;-63
2023/05/16 04:56:04;;;;;;;;;;;17.00;99.90;;;;;;5093147;28;19981;-63
2023/05/16 04:58:30;;;;;;;;;;;16.90;99.90;;;;;;5093465;28;19985;-65
2023/05/16 05:00:56;;;;;;;;;;;16.90;99.90;;;;;;5093019;28;20439;-64
2023/05/16 05:03:22;;;;;;;;;;;17.00;99.90;;;;;;5091883;28;20031;-65
2023/05/16 05:05:48;;;;;;;;;;;17.10;99.90;;;;;;5093310;28;20044;-65
2023/05/16 05:08:13;;;;;;;;;;;17.10;99.90;;;;;;5093053;28;19985;-66
2023/05/16 05:10:39;;;;;;;;;;;17.20;99.90;;;;;;5092744;28;19988;-63
2023/05/16 05:13:05;;;;;;;;;;;17.20;99.90;;;;;;5093140;28;19989;-65
2023/05/16 05:15:30;;;;;;;;;;;17.30;99.90;;;;;;5093212;28;19981;-64
2023/05/16 05:17:56;;;;;;;;;;;17.30;99.90;;;;;;5092291;28;19988;-64
2023/05/16 05:20:22;;;;;;;;;;;17.30;99.90;;;;;;5093474;28;20087;-66
2023/05/16 05:22:47;;;;;;;;;;;17.30;99.90;;;;;;5096415;28;19981;-69
2023/05/16 05:25:13;;;;;;;;;;;17.20;99.90;;;;;;5096391;28;20001;-66
2023/05/16 05:27:39;;;;;;;;;;;17.20;99.90;;;;;;5096405;28;20098;-64
2023/05/16 05:30:05;;;;;;;;;;;17.20;99.90;;;;;;5096482;28;19992;-65
2023/05/16 05:32:31;;;;;;;;;;;17.20;99.90;;;;;;5096175;28;20026;-68
2023/05/16 05:34:56;;;;;;;;;;;17.20;99.90;;;;;;5088689;28;19985;-66
2023/05/16 05:37:22;;;;;;;;;;;17.10;99.90;;;;;;5096010;28;20383;-67
2023/05/16 05:39:48;;;;;;;;;;;17.10;99.90;;;;;;5096160;28;19985;-68
2023/05/16 05:42:13;;;;;;;;;;;17.20;99.90;;;;;;5096364;28;20038;-69
2023/05/16 05:44:39;;;;;;;;;;;17.30;99.90;;;;;;5096085;28;20015;-69
2023/05/16 05:47:05;;;;;;;;;;;17.30;99.90;;;;;;5095309;28;19989;-69
2023/05/16 05:49:30;;;;;;;;;;;17.40;99.90;;;;;;5095454;28;19981;-65
2023/05/16 05:51:56;;;;;;;;;;;17.40;99.90;;;;;;5096243;28;19981;-65
2023/05/16 05:54:22;;;;;;;;;;;17.40;99.90;;;;;;5095611;28;20378;-65
2023/05/16 05:56:47;;;;;;;;;;;17.30;99.90;;;;;;5095860;28;19985;-65
2023/05/16 05:59:13;;;;;;;;;;;17.30;99.90;;;;;;5095655;28;20031;-68
2023/05/16 06:01:38;;;;;;;;;;;17.40;99.90;;;;;;5095777;28;20003;-67
2023/05/16 06:04:04;;;;;;;;;;;17.30;99.90;;;;;;5095567;28;20371;-67
2023/05/16 06:06:30;;;;;;;;;;;17.20;99.90;;;;;;5095847;28;19992;-65
2023/05/16 06:08:56;;;;;;;;;;;17.20;99.90;;;;;;5095597;28;19996;-68
2023/05/16 06:11:22;;;;;;;;;;;17.20;99.90;;;;;;5095602;28;20483;-65
2023/05/16 06:13:47;;;;;;;;;;;17.20;99.90;;;;;;5091058;28;19989;-68
2023/05/16 06:16:13;;;;;;;;;;;17.20;99.90;;;;;;5093400;28;19992;-63
2023/05/16 06:18:39;;;;;;;;;;;17.20;99.90;;;;;;5093777;28;19988;-65
2023/05/16 06:21:05;;;;;;;;;;;17.00;99.90;;;;;;5096373;28;19989;-69
2023/05/16 06:23:31;;;;;;;;;;;16.90;99.90;;;;;;5093775;28;20033;-68
2023/05/16 06:25:57;;;;;;;;;;;16.70;99.90;;;;;;5094190;28;20036;-63
2023/05/16 06:28:23;;;;;;;;;;;16.70;99.90;;;;;;5094032;28;20447;-68
2023/05/16 06:30:50;;;;;;;;;;;16.70;99.90;;;;;;5091317;28;20000;-68
2023/05/16 06:33:16;;;;;;;;;;;16.70;99.90;;;;;;5094308;28;20480;-68
2023/05/16 06:35:42;;;;;;;;;;;16.60;99.90;;;;;;5093344;28;19988;-63
2023/05/16 06:38:07;;;;;;;;;;;16.60;99.90;;;;;;5093312;28;20016;-66
2023/05/16 06:40:33;;;;;;;;;;;16.50;99.90;;;;;;5094264;28;20038;-66
2023/05/16 06:42:59;;;;;;;;;;;16.50;99.90;;;;;;5094360;28;19988;-69
2023/05/16 06:45:24;;;;;;;;;;;16.50;99.90;;;;;;5094222;28;20480;-66
2023/05/16 06:47:52;;;;;;;;;;;16.60;99.90;;;;;;5089829;28;20313;-69
2023/05/16 06:50:17;;;;;;;;;;;16.80;99.90;;;;;;5086863;28;19985;-66
2023/05/16 06:52:43;;;;;;;;;;;16.90;99.90;;;;;;5082946;28;19989;-67
2023/05/16 06:55:09;;;;;;;;;;;17.10;99.90;;;;;;5113427;28;19997;-63
2023/05/16 06:57:34;;;;;;;;;;;17.10;99.90;;;;;;5113695;28;20024;-61
2023/05/16 07:00:00;;;;;;;;;;;17.20;99.90;;;;;;5095046;28;20070;-62
2023/05/16 07:02:25;;;;;;;;;;;17.20;99.90;;;;;;5090807;28;20117;-65
2023/05/16 07:04:51;;;;;;;;;;;17.20;99.90;;;;;;5090790;28;20008;-65
2023/05/16 07:07:17;;;;;;;;;;;17.30;99.90;;;;;;5090382;28;19996;-64
2023/05/16 07:09:42;;;;;;;;;;;17.30;99.90;;;;;;5090658;28;19988;-65
2023/05/16 07:12:08;;;;;;;;;;;17.20;99.90;;;;;;5092335;28;20462;-62
2023/05/16 07:14:34;;;;;;;;;;;17.20;99.90;;;;;;5092903;28;19981;-65
2023/05/16 07:16:59;;;;;;;;;;;17.30;99.90;;;;;;5093311;28;19985;-64
2023/05/16 07:19:25;;;;;;;;;;;17.60;99.90;;;;;;5094485;28;19985;-61
2023/05/16 07:21:50;;;;;;;;;;;17.90;99.90;;;;;;5092328;28;19981;-60
2023/05/16 07:24:16;;;;;;;;;;;18.50;99.90;;;;;;5091934;28;20055;-62
2023/05/16 07:26:42;;;;;;;;;;;20.00;99.90;;;;;;5092411;28;20446;-62
2023/05/16 07:29:07;;;;;;;;;;;21.70;99.90;;;;;;5075786;28;19996;-64
2023/05/16 07:31:33;;;;;;;;;;;23.30;99.90;;;;;;5071756;28;20012;-64
2023/05/16 07:33:59;;;;;;;;;;;25.10;99.90;;;;;;5075043;28;19982;-63
2023/05/16 07:36:24;;;;;;;;;;;26.40;99.90;;;;;;5093492;28;19993;-63
2023/05/16 07:38:50;;;;;;;;;;;27.10;99.00;;;;;;5092876;28;20020;-66
2023/05/16 07:41:15;;;;;;;;;;;28.00;94.50;;;;;;5093179;28;19985;-63
2023/05/16 07:43:41;;;;;;;;;;;28.20;81.20;;;;;;5093543;28;20355;-64
2023/05/16 07:46:07;;;;;;;;;;;27.60;85.50;;;;;;5093221;28;19989;-65
2023/05/16 07:48:35;;;;;;;;;;;26.40;90.90;;;;;;5084656;28;20031;-67
2023/05/16 07:51:01;;;;;;;;;;;24.90;99.90;;;;;;5086235;28;20004;-68
2023/05/16 07:53:27;;;;;;;;;;;23.70;99.90;;;;;;5093063;28;20435;-68
2023/05/16 07:55:53;;;;;;;;;;;23.00;99.90;;;;;;5093970;28;19988;-64
2023/05/16 07:58:18;;;;;;;;;;;22.40;99.90;;;;;;5091534;28;19989;-66
2023/05/16 08:00:44;;;;;;;;;;;22.10;99.90;;;;;;5082573;28;19996;-72
2023/05/16 08:03:10;;;;;;;;;;;21.80;99.90;;;;;;5088972;28;20360;-66
2023/05/16 08:05:36;;;;;;;;;;;21.70;99.90;;;;;;5088047;28;20001;-65
2023/05/16 08:08:01;;;;;;;;;;;21.70;99.90;;;;;;5068617;28;19992;-65
2023/05/16 08:10:27;;;;;;;;;;;21.80;99.90;;;;;;5073808;28;19992;-64
2023/05/16 08:12:52;;;;;;;;;;;21.90;99.90;;;;;;5080785;28;19989;-66
2023/05/16 08:15:18;;;;;;;;;;;22.00;99.90;;;;;;5070708;28;20011;-64
2023/05/16 08:17:43;;;;;;;;;;;21.90;99.90;;;;;;5086056;28;19995;-65
2023/05/16 08:20:10;;;;;;;;;;;21.60;99.90;;;;;;5077553;28;19982;-65
2023/05/16 08:22:35;;;;;;;;;;;21.70;99.90;;;;;;5070993;28;19993;-66
2023/05/16 08:25:01;;;;;;;;;;;22.70;99.90;;;;;;5071698;28;20002;-65
2023/05/16 08:27:26;;;;;;;;;;;23.50;99.90;;;;;;5072545;28;20329;-63
2023/05/16 08:29:52;;;;;;;;;;;23.80;99.90;;;;;;5090484;28;20462;-63
2023/05/16 08:32:18;;;;;;;;;;;23.90;99.90;;;;;;5089092;28;20054;-63
2023/05/16 08:34:43;;;;;;;;;;;23.40;99.90;;;;;;5080387;28;20415;-65
2023/05/16 08:37:09;;;;;;;;;;;22.90;99.90;;;;;;5073617;28;20009;-63
2023/05/16 08:39:37;;;;;;;;;;;22.60;99.90;;;;;;5074578;28;20080;-68
2023/05/16 08:42:04;;;;;;;;;;;22.40;99.90;;;;;;5085155;28;20640;-65
2023/05/16 08:44:30;;;;;;;;;;;22.30;99.90;;;;;;5086876;28;20508;-66
2023/05/16 08:46:55;;;;;;;;;;;22.00;99.90;;;;;;5093720;28;19997;-64
2023/05/16 08:49:21;;;;;;;;;;;22.00;99.90;;;;;;5090253;28;20439;-66
2023/05/16 08:51:47;;;;;;;;;;;22.10;99.90;;;;;;5091437;28;20609;-66
2023/05/16 08:54:14;;;;;;;;;;;22.50;99.90;;;;;;5094871;28;19992;-66
2023/05/16 08:56:41;;;;;;;;;;;23.40;99.90;;;;;;5094918;28;19984;-66
2023/05/16 08:59:08;;;;;;;;;;;23.60;99.90;;;;;;5095948;28;20035;-67
2023/05/16 09:01:34;;;;;;;;;;;25.50;99.90;;;;;;5094256;28;19986;-67
2023/05/16 09:04:00;;;;;;;;;;;26.70;99.90;;;;;;5097103;28;20005;-68
2023/05/16 09:06:26;;;;;;;;;;;28.00;99.90;;;;;;5094497;28;20062;-67
2023/05/16 09:08:53;;;;;;;;;;;29.10;85.50;;;;;;5089593;28;20061;-67
2023/05/16 09:11:22;;;;;;;;;;;29.10;69.70;;;;;;5092538;28;19994;-65
2023/05/16 09:13:48;;;;;;;;;;;28.80;67.50;;;;;;5089495;28;20016;-65
2023/05/16 09:16:15;;;;;;;;;;;28.70;65.80;;;;;;5088572;28;20447;-66
2023/05/16 09:19:01;;;;;;;;;;;28.30;65.90;;;;;;5087474;28;20432;-64
2023/05/16 09:21:28;;;;;;;;;;;27.90;67.80;;;;;;5091615;28;20032;-63
2023/05/16 09:23:54;;;;;;;;;;;27.40;68.00;;;;;;5094556;28;20020;-65
2023/05/16 09:26:20;;;;;;;;;;;26.60;68.60;;;;;;5093530;28;20036;-65
2023/05/16 09:28:46;;;;;;;;;;;26.10;73.60;;;;;;5088002;28;19986;-63
2023/05/16 09:31:19;;;;;;;;;;;25.10;85.70;;;;;;5075378;28;19990;-66
2023/05/16 09:33:44;;;;;;;;;;;24.60;99.00;;;;;;5091919;28;20079;-63
2023/05/16 09:36:10;;;;;;;;;;;24.10;99.60;;;;;;5101563;28;20404;-66
2023/05/16 09:38:41;;;;;;;;;;;23.90;99.90;;;;;;5093101;28;20020;-65
2023/05/16 09:41:10;;;;;;;;;;;23.80;99.90;;;;;;5082619;28;19985;-62
2023/05/16 09:43:39;;;;;;;;;;;24.00;99.90;;;;;;5086016;28;19985;-66
2023/05/16 09:46:06;;;;;;;;;;;24.30;99.90;;;;;;5070360;28;20054;-63
2023/05/16 09:48:32;;;;;;;;;;;24.60;99.90;;;;;;5087473;28;20385;-65
2023/05/16 09:51:02;;;;;;;;;;;24.70;99.90;;;;;;5097111;28;19985;-68
2023/05/16 09:53:29;;;;;;;;;;;24.90;99.90;;;;;;5096489;28;20509;-69
2023/05/16 09:56:07;;;;;;;;;;;25.30;99.90;;;;;;5099894;28;19985;-63
2023/05/16 09:58:34;;;;;;;;;;;25.60;99.90;;;;;;5089825;28;19996;-63
2023/05/16 10:01:00;;;;;;;;;;;25.60;95.80;;;;;;5082646;28;20096;-64
2023/05/16 10:03:25;;;;;;;;;;;25.60;89.40;;;;;;5088333;28;20109;-63
2023/05/16 10:05:51;;;;;;;;;;;25.60;95.00;;;;;;5091979;28;20376;-62
2023/05/16 10:08:20;;;;;;;;;;;25.60;91.80;;;;;;5084089;28;20028;-65
2023/05/16 10:10:48;;;;;;;;;;;25.70;98.10;;;;;;5081097;28;20405;-66
2023/05/16 10:13:14;;;;;;;;;;;25.90;93.10;;;;;;5070953;28;20281;-67
2023/05/16 10:15:40;;;;;;;;;;;26.00;85.90;;;;;;5086296;28;19989;-65
2023/05/16 10:18:10;;;;;;;;;;;26.50;93.30;;;;;;5099557;28;19992;-64
2023/05/16 10:20:36;;;;;;;;;;;26.70;92.20;;;;;;5093987;28;20065;-63
2023/05/16 10:23:02;;;;;;;;;;;26.90;86.50;;;;;;5100245;28;19985;-65
2023/05/16 10:25:31;;;;;;;;;;;26.80;76.80;;;;;;5080292;28;20020;-67
2023/05/16 10:27:57;;;;;;;;;;;26.70;72.70;;;;;;5082631;28;19989;-71
2023/05/16 10:30:24;;;;;;;;;;;26.60;77.40;;;;;;5080775;28;20000;-65
2023/05/16 10:32:54;;;;;;;;;;;26.20;78.30;;;;;;5093017;28;20013;-61
2023/05/16 10:38:23;;;;;;;;;;;25.80;80.50;;;;;;5084082;28;20081;-65
2023/05/16 10:40:49;;;;;;;;;;;25.80;93.00;;;;;;5093384;28;20071;-64
2023/05/16 10:43:25;;;;;;;;;;;25.80;90.50;;;;;;5094937;28;19991;-62
2023/05/16 10:46:01;;;;;;;;;;;25.80;88.40;;;;;;5105388;28;20058;-65
2023/05/16 10:48:31;;;;;;;;;;;25.60;98.40;;;;;;5100496;28;20487;-62
2023/05/16 10:50:56;;;;;;;;;;;25.60;90.40;;;;;;5091868;28;19992;-60
2023/05/16 10:53:32;;;;;;;;;;;25.20;96.00;;;;;;5091019;28;19988;-63
2023/05/16 10:55:59;;;;;;;;;;;25.20;96.90;;;;;;5087303;28;19988;-63
2023/05/16 10:58:40;;;;;;;;;;;25.20;97.40;;;;;;5089653;28;19989;-62
2023/05/16 11:01:28;;;;;;;;;;;25.10;95.50;;;;;;5089088;28;19984;-64
2023/05/16 11:06:26;;;;;;;;;;;25.00;97.80;;;;;;5086672;28;20088;-64
2023/05/16 11:09:08;;;;;;;;;;;24.80;97.80;;;;;;5083153;28;19989;-62
2023/05/16 11:11:54;;;;;;;;;;;24.90;99.00;;;;;;5084268;28;19985;-62
2023/05/16 11:14:22;;;;;;;;;;;25.10;99.90;;;;;;5089907;28;20001;-66
2023/05/16 11:17:02;;;;;;;;;;;25.40;99.90;;;;;;5093318;28;19992;-61
2023/05/16 11:19:31;;;;;;;;;;;25.40;97.10;;;;;;5091617;28;19988;-61
2023/05/16 11:22:06;;;;;;;;;;;25.30;97.30;;;;;;5078085;28;19989;-64
2023/05/16 11:24:35;;;;;;;;;;;25.30;96.10;;;;;;5075697;28;20057;-62
2023/05/16 11:27:02;;;;;;;;;;;25.20;97.90;;;;;;5080944;28;20001;-62
2023/05/16 11:29:33;;;;;;;;;;;25.30;97.40;;;;;;5072312;28;20456;-61
2023/05/16 11:31:59;;;;;;;;;;;25.60;98.20;;;;;;5069938;28;20089;-65
2023/05/16 11:34:25;;;;;;;;;;;25.90;94.50;;;;;;5072869;28;19985;-64
2023/05/16 11:36:51;;;;;;;;;;;26.40;95.00;;;;;;5070348;28;20512;-64
2023/05/16 11:39:18;;;;;;;;;;;26.50;91.20;;;;;;5070542;28;20016;-64
2023/05/16 11:41:43;;;;;;;;;;;26.50;90.00;;;;;;5083491;28;20012;-63
2023/05/16 11:44:12;;;;;;;;;;;26.50;91.10;;;;;;5084525;28;20427;-65
2023/05/16 11:46:39;;;;;;;;;;;26.50;95.70;;;;;;5095568;28;20028;-60
2023/05/16 11:49:06;;;;;;;;;;;26.40;84.70;;;;;;5112101;28;19984;-60
2023/05/16 11:51:33;;;;;;;;;;;26.30;87.20;;;;;;5095046;28;19992;-65
2023/05/16 11:53:59;;;;;;;;;;;26.30;89.50;;;;;;5091972;28;20034;-61
2023/05/16 11:56:26;;;;;;;;;;;26.30;87.80;;;;;;5091363;28;20044;-62
2023/05/16 11:58:51;;;;;;;;;;;26.20;80.00;;;;;;5092373;28;20070;-62
2023/05/16 12:01:18;;;;;;;;;;;25.90;90.00;;;;;;5073264;28;20436;-64
2023/05/16 12:03:43;;;;;;;;;;;26.00;93.60;;;;;;5080246;28;19995;-64
2023/05/16 12:06:09;;;;;;;;;;;25.90;89.10;;;;;;5098663;28;20004;-62
2023/05/16 12:08:35;;;;;;;;;;;25.90;86.70;;;;;;5109819;28;19984;-66
2023/05/16 12:11:01;;;;;;;;;;;25.90;90.40;;;;;;5091162;28;20336;-61
2023/05/16 12:13:26;;;;;;;;;;;26.10;79.70;;;;;;5068405;28;20341;-62
2023/05/16 12:15:52;;;;;;;;;;;26.50;83.10;;;;;;5094368;28;20023;-62
2023/05/16 12:18:19;;;;;;;;;;;27.10;81.80;;;;;;5083718;28;20026;-64
2023/05/16 12:20:46;;;;;;;;;;;27.70;88.10;;;;;;5091259;28;19993;-64
2023/05/16 12:23:12;;;;;;;;;;;27.80;68.70;;;;;;5070710;28;19993;-64
2023/05/16 12:25:44;;;;;;;;;;;27.50;67.50;;;;;;5085613;28;20005;-65
2023/05/16 12:28:13;;;;;;;;;;;27.20;72.60;;;;;;5083330;28;20043;-62
2023/05/16 12:30:40;;;;;;;;;;;26.90;66.60;;;;;;5085482;28;19985;-64
2023/05/16 12:33:10;;;;;;;;;;;26.60;72.80;;;;;;5090002;28;20107;-62
2023/05/16 12:35:39;;;;;;;;;;;26.40;72.70;;;;;;5083538;28;20083;-65
2023/05/16 12:38:06;;;;;;;;;;;26.50;72.10;;;;;;5082030;28;20017;-63
2023/05/16 12:40:32;;;;;;;;;;;26.60;76.70;;;;;;5081143;28;19994;-66
2023/05/16 12:42:58;;;;;;;;;;;26.60;71.50;;;;;;5097182;28;19989;-62
2023/05/16 12:45:28;;;;;;;;;;;26.80;76.30;;;;;;5099083;28;20008;-61
2023/05/16 12:47:54;;;;;;;;;;;27.10;75.80;;;;;;5105397;28;20356;-63
2023/05/16 12:50:20;;;;;;;;;;;27.50;73.60;;;;;;5103382;28;19982;-62
2023/05/16 12:52:50;;;;;;;;;;;27.50;67.20;;;;;;5103381;28;19992;-61
2023/05/16 12:55:17;;;;;;;;;;;27.60;70.90;;;;;;5104099;28;19989;-62
2023/05/16 12:57:43;;;;;;;;;;;27.80;69.40;;;;;;5101799;28;19985;-62
2023/05/16 13:00:11;;;;;;;;;;;28.10;67.40;;;;;;5111937;28;19981;-62
2023/05/16 13:02:37;;;;;;;;;;;28.30;67.40;;;;;;5100575;28;20088;-63
2023/05/16 13:05:03;;;;;;;;;;;28.50;66.50;;;;;;5101704;28;20091;-60
2023/05/16 13:07:29;;;;;;;;;;;28.80;64.70;;;;;;5114924;28;19981;-62
2023/05/16 13:09:55;;;;;;;;;;;28.90;64.10;;;;;;5114413;28;19984;-61
2023/05/16 13:12:21;;;;;;;;;;;28.80;62.70;;;;;;5115004;28;20086;-60
2023/05/16 13:14:46;;;;;;;;;;;28.90;63.70;;;;;;5112866;28;19985;-62
2023/05/16 13:17:12;;;;;;;;;;;29.10;61.90;;;;;;5113338;28;20358;-59
2023/05/16 13:19:38;;;;;;;;;;;29.10;60.70;;;;;;5114734;28;19984;-65
2023/05/16 13:22:03;;;;;;;;;;;28.90;59.40;;;;;;5115259;28;19985;-63
2023/05/16 13:24:29;;;;;;;;;;;28.40;61.20;;;;;;5115491;28;20000;-62
2023/05/16 13:26:55;;;;;;;;;;;28.50;61.80;;;;;;5115971;28;19995;-65
2023/05/16 13:29:20;;;;;;;;;;;28.50;62.80;;;;;;5116385;28;19991;-64
2023/05/16 13:31:46;;;;;;;;;;;28.30;62.60;;;;;;5116922;28;20036;-64
2023/05/16 13:34:11;;;;;;;;;;;27.90;63.90;;;;;;5116214;28;20026;-60
2023/05/16 13:36:37;;;;;;;;;;;27.80;64.30;;;;;;5116647;28;20037;-62
2023/05/16 13:39:03;;;;;;;;;;;27.70;66.00;;;;;;5116749;28;20013;-65
2023/05/16 13:41:28;;;;;;;;;;;27.50;65.30;;;;;;5116981;28;19984;-62
2023/05/16 13:43:54;;;;;;;;;;;27.30;65.70;;;;;;5116681;28;20067;-63
2023/05/16 13:46:19;;;;;;;;;;;26.90;64.90;;;;;;5116766;28;19993;-62
2023/05/16 13:48:45;;;;;;;;;;;26.60;59.60;;;;;;5116775;28;19985;-61
2023/05/16 13:51:12;;;;;;;;;;;25.70;59.30;;;;;;5116718;28;20026;-62
2023/05/16 13:53:38;;;;;;;;;;;23.80;99.90;;;;;;5116355;28;19981;-63
2023/05/16 13:56:04;;;;;;;;;;;20.00;99.90;;;;;;5116567;28;20141;-62
2023/05/16 13:58:29;;;;;;;;;;;18.70;99.90;;;;;;5116452;28;19985;-60
2023/05/16 14:00:55;;;;;;;;;;;18.40;99.90;;;;;;5116438;28;19991;-64
2023/05/16 14:03:21;;;;;;;;;;;18.20;99.90;;;;;;5116690;28;20355;-67
2023/05/16 14:05:48;;;;;;;;;;;18.50;99.90;;;;;;5116428;28;20009;-64
2023/05/16 14:08:13;;;;;;;;;;;18.40;99.90;;;;;;5116253;28;20036;-62
2023/05/16 14:10:39;;;;;;;;;;;18.30;99.90;;;;;;5116342;28;20012;-61
2023/05/16 14:13:05;;;;;;;;;;;18.40;99.90;;;;;;5116581;28;19992;-65
2023/05/16 14:15:30;;;;;;;;;;;18.30;99.90;;;;;;5116249;28;19981;-61
2023/05/16 14:17:56;;;;;;;;;;;18.40;99.90;;;;;;5116109;28;20351;-62
2023/05/16 14:20:21;;;;;;;;;;;18.70;99.90;;;;;;5116106;28;20046;-60